This is the latest recevied weather packets stored in our database for station/object HS0TK-1. If no packets are shown the sender has not sent any weather packets the latest 10 day(s).
| Time | Temp. | Humidity | Pressure | Rain* | Wind** | Luminosity | Snow |
|---|---|---|---|---|---|---|---|
| 1777953340 | 33.89° C | 52% | 1011 hPa | - | - | 0 W/m² | - |
| 1777952398 | 33.33° C | 53% | 1012 hPa | - | - | 0 W/m² | - |
| 1777951470 | 32.78° C | 53% | 1012 hPa | - | - | 0 W/m² | - |
| 1777951408 | 32.78° C | 53% | 1012 hPa | - | - | 0 W/m² | - |
| 1777950479 | 32.78° C | 54% | 1012 hPa | - | - | 0 W/m² | - |
| 1777949553 | 32.22° C | 55% | 1012 hPa | - | - | 0 W/m² | - |
| 1777948621 | 31.67° C | 57% | 1012 hPa | - | - | 0 W/m² | - |
| 1777947694 | 31.67° C | 57% | 1012 hPa | - | - | 0 W/m² | - |
| 1777946764 | 31.67° C | 58% | 1012 hPa | - | - | 0 W/m² | - |
| 1777945834 | 31.67° C | 59% | 1012 hPa | - | - | 0 W/m² | - |
| 1777944902 | 31.11° C | 59% | 1012 hPa | - | - | 0 W/m² | - |
| 1777943972 | 31.11° C | 59% | 1012 hPa | - | - | 0 W/m² | - |
| 1777943041 | 31.11° C | 60% | 1012 hPa | - | - | 0 W/m² | - |
| 1777942108 | 31.11° C | 61% | 1012 hPa | - | - | 0 W/m² | - |
| 1777941173 | 30.56° C | 61% | 1011 hPa | - | - | 0 W/m² | - |
| 1777940241 | 30.56° C | 61% | 1011 hPa | - | - | 0 W/m² | - |
| 1777939314 | 31.11° C | 60% | 1011 hPa | - | - | 0 W/m² | - |
| 1777938382 | 31.11° C | 56% | 1011 hPa | - | - | 0 W/m² | - |
| 1777937451 | 31.11° C | 56% | 1011 hPa | - | - | 0 W/m² | - |
| 1777936507 | 31.11° C | 57% | 1010 hPa | - | - | 0 W/m² | - |
| 1777901155 | 33.89° C | 47% | 1009 hPa | - | - | 0 W/m² | - |
| 1777900228 | 33.33° C | 45% | 1009 hPa | - | - | 0 W/m² | - |
| 1777899298 | 33.33° C | 42% | 1009 hPa | - | - | 0 W/m² | - |
| 1777899236 | 33.33° C | 42% | 1009 hPa | - | - | 0 W/m² | - |
| 1777898302 | 32.22° C | 39% | 1008 hPa | - | - | 0 W/m² | - |
* Rain since midnight (hover to see other rain measurements)
** Current wind speed in m/s (hover to see current wind gust speed)